createdAt,value
2023-04-13T00:00:11.010Z,8.50
2023-04-13T00:02:13.351Z,4.57
2023-04-13T00:04:15.529Z,6.00
2023-04-13T00:06:17.745Z,8.30
2023-04-13T00:08:23.013Z,6.67
2023-04-13T00:10:25.510Z,4.40
2023-04-13T00:12:27.569Z,7.30
2023-04-13T00:14:35.240Z,4.93
2023-04-13T00:16:37.235Z,11.70
2023-04-13T00:18:40.162Z,6.30
2023-04-13T00:20:43.649Z,7.00
2023-04-13T00:22:47.341Z,8.73
2023-04-13T00:24:49.794Z,6.10
2023-04-13T00:26:54.580Z,5.60
2023-04-13T00:28:57.164Z,5.93
2023-04-13T00:31:00.538Z,6.53
2023-04-13T00:33:03.816Z,6.60
2023-04-13T00:35:08.584Z,8.57
2023-04-13T00:37:11.783Z,6.30
2023-04-13T00:39:13.815Z,6.60
2023-04-13T00:41:16.354Z,6.73
2023-04-13T00:43:18.372Z,8.20
2023-04-13T00:45:20.486Z,5.90
2023-04-13T00:47:27.641Z,6.37
2023-04-13T00:49:30.381Z,6.10
2023-04-13T00:51:33.125Z,7.20
2023-04-13T00:53:35.254Z,6.10
2023-04-13T00:55:39.494Z,10.03
2023-04-13T00:57:42.090Z,9.47
2023-04-13T00:59:52.761Z,6.47
2023-04-13T01:01:58.733Z,6.17
2023-04-13T01:04:00.970Z,6.30
2023-04-13T01:06:17.936Z,4.70
2023-04-13T01:08:34.324Z,6.07
2023-04-13T01:10:43.553Z,6.70
2023-04-13T01:12:51.545Z,6.90
2023-04-13T01:15:06.164Z,6.90
2023-04-13T01:17:15.439Z,6.70
2023-04-13T01:19:27.524Z,10.33
2023-04-13T01:21:30.425Z,6.43
2023-04-13T01:23:49.996Z,6.30
2023-04-13T01:25:57.738Z,7.93
2023-04-13T01:28:07.404Z,9.00
2023-04-13T01:30:23.524Z,8.00
2023-04-13T01:32:30.856Z,7.03
2023-04-13T01:34:33.329Z,4.50
2023-04-13T01:36:35.595Z,5.80
2023-04-13T01:38:37.996Z,8.43
2023-04-13T01:40:44.745Z,9.13
2023-04-13T01:42:47.314Z,6.33
2023-04-13T01:44:50.279Z,6.43
2023-04-13T01:46:56.151Z,6.87
2023-04-13T01:49:22.898Z,4.90
2023-04-13T01:51:51.298Z,8.90
2023-04-13T01:54:18.198Z,5.50
2023-04-13T01:56:23.210Z,6.13
2023-04-13T01:58:33.659Z,8.43
2023-04-13T02:00:40.472Z,11.17
2023-04-13T02:02:46.627Z,7.07
2023-04-13T02:04:50.363Z,9.90
2023-04-13T02:06:53.328Z,6.33
2023-04-13T02:09:06.958Z,6.10
2023-04-13T02:11:10.219Z,7.27
2023-04-13T02:13:12.220Z,6.57
2023-04-13T02:15:14.253Z,3.83
2023-04-13T02:17:16.441Z,13.10
2023-04-13T02:19:18.475Z,5.40
2023-04-13T02:21:20.471Z,4.30
2023-04-13T02:23:22.491Z,3.43
2023-04-13T02:25:25.997Z,3.80
2023-04-13T02:27:31.630Z,3.87
2023-04-13T02:29:34.363Z,3.37
2023-04-13T02:31:37.540Z,4.33
2023-04-13T02:33:39.921Z,4.60
2023-04-13T02:35:42.279Z,4.40
2023-04-13T02:37:45.700Z,5.27
2023-04-13T02:39:49.929Z,3.90
2023-04-13T02:41:51.997Z,3.60
2023-04-13T02:43:57.190Z,4.23
2023-04-13T02:46:01.712Z,3.63
2023-04-13T02:48:12.155Z,9.93
2023-04-13T02:50:14.461Z,4.70
2023-04-13T02:52:23.121Z,4.60
2023-04-13T02:54:33.666Z,4.67
2023-04-13T02:56:36.108Z,10.33
2023-04-13T02:58:38.463Z,3.87
2023-04-13T03:00:48.534Z,4.80
2023-04-13T03:02:53.309Z,4.10
2023-04-13T03:04:56.607Z,5.43
2023-04-13T03:07:05.200Z,9.53
2023-04-13T03:09:08.304Z,6.63
2023-04-13T03:11:23.422Z,3.73
2023-04-13T03:13:33.367Z,4.40
2023-04-13T03:15:35.673Z,4.50
2023-04-13T03:17:41.431Z,5.53
2023-04-13T03:19:47.518Z,4.07
2023-04-13T03:21:50.531Z,3.50
2023-04-13T03:23:57.897Z,5.67
2023-04-13T03:26:00.481Z,3.50
2023-04-13T03:28:02.525Z,6.10
2023-04-13T03:30:10.739Z,4.73
2023-04-13T03:32:22.236Z,7.33
2023-04-13T03:34:31.062Z,7.70
2023-04-13T03:36:36.420Z,5.47
2023-04-13T03:38:38.936Z,7.47
2023-04-13T03:40:41.815Z,11.73
2023-04-13T03:42:43.830Z,6.30
2023-04-13T03:44:47.839Z,6.70
2023-04-13T03:46:49.907Z,10.40
2023-04-13T03:48:59.854Z,11.80
2023-04-13T03:51:03.858Z,10.27
2023-04-13T03:53:17.703Z,10.97
2023-04-13T03:55:21.437Z,8.57
2023-04-13T03:57:26.693Z,11.00
2023-04-13T03:59:28.797Z,6.50
2023-04-13T04:01:30.966Z,5.93
2023-04-13T04:03:33.533Z,8.87
2023-04-13T04:05:42.281Z,4.97
2023-04-13T04:07:44.645Z,4.30
2023-04-13T04:09:46.640Z,6.20
2023-04-13T04:11:50.205Z,5.23
2023-04-13T04:14:00.254Z,9.77
2023-04-13T04:16:04.650Z,3.63
2023-04-13T04:18:09.312Z,4.73
2023-04-13T04:20:14.519Z,5.57
2023-04-13T04:22:16.698Z,11.97
2023-04-13T04:24:23.031Z,4.80
2023-04-13T04:26:30.189Z,4.37
2023-04-13T04:28:38.889Z,4.37
2023-04-13T04:30:45.731Z,6.10
2023-04-13T04:32:54.879Z,4.10
2023-04-13T04:34:58.908Z,4.33
2023-04-13T04:39:14.373Z,5.37
2023-04-13T04:41:25.506Z,4.00
2023-04-13T04:43:32.268Z,4.27
2023-04-13T04:45:36.346Z,6.20
2023-04-13T04:47:43.408Z,4.17
2023-04-13T04:50:01.882Z,9.07
2023-04-13T04:52:06.468Z,8.90
2023-04-13T04:54:08.486Z,5.67
2023-04-13T04:56:10.724Z,5.53
2023-04-13T04:58:19.672Z,4.10
2023-04-13T05:00:26.613Z,4.57
2023-04-13T05:02:50.866Z,5.27
2023-04-13T05:04:53.380Z,9.97
2023-04-13T05:06:57.546Z,6.10
2023-04-13T05:09:02.079Z,4.07
2023-04-13T05:11:07.290Z,3.63
2023-04-13T05:13:10.165Z,3.53
2023-04-13T05:15:12.645Z,9.57
2023-04-13T05:17:18.286Z,6.77
2023-04-13T05:19:20.946Z,4.73
2023-04-13T05:21:28.485Z,3.60
2023-04-13T05:23:33.559Z,4.33
2023-04-13T05:25:40.974Z,3.50
2023-04-13T05:27:51.077Z,3.70
2023-04-13T05:29:53.604Z,10.43
2023-04-13T05:32:00.157Z,5.07
2023-04-13T05:34:03.471Z,4.70
2023-04-13T05:36:06.384Z,4.00
2023-04-13T05:38:09.277Z,3.40
2023-04-13T05:40:14.380Z,4.90
2023-04-13T05:42:16.515Z,3.90
2023-04-13T05:44:20.194Z,4.20
2023-04-13T05:46:24.153Z,3.17
2023-04-13T05:48:26.707Z,3.80
2023-04-13T05:50:32.162Z,5.13
2023-04-13T05:52:34.734Z,3.20
2023-04-13T05:54:37.999Z,4.37
2023-04-13T05:56:41.040Z,2.97
2023-04-13T05:58:43.081Z,4.10
2023-04-13T06:00:55.344Z,3.47
2023-04-13T06:03:04.237Z,3.13
2023-04-13T06:05:08.088Z,2.73
2023-04-13T06:07:10.171Z,6.80
2023-04-13T06:09:13.275Z,7.77
2023-04-13T06:11:15.629Z,7.80
2023-04-13T06:13:17.661Z,7.73
2023-04-13T06:15:21.807Z,3.07
2023-04-13T06:17:24.696Z,14.23
2023-04-13T06:19:28.992Z,7.30
2023-04-13T06:21:32.064Z,10.10
2023-04-13T06:23:34.641Z,8.60
2023-04-13T06:25:40.902Z,5.23
2023-04-13T06:27:46.886Z,3.33
2023-04-13T06:29:49.052Z,4.30
2023-04-13T06:31:51.879Z,8.40
2023-04-13T06:33:54.943Z,4.47
2023-04-13T06:36:01.290Z,4.43
2023-04-13T06:38:04.171Z,12.20
2023-04-13T06:40:17.119Z,10.20
2023-04-13T06:42:26.996Z,6.10
2023-04-13T06:44:38.221Z,3.00
2023-04-13T06:46:40.534Z,2.80
2023-04-13T06:48:47.046Z,7.10
2023-04-13T06:50:52.465Z,2.60
2023-04-13T06:52:55.383Z,7.33
2023-04-13T06:54:57.636Z,2.23
2023-04-13T06:57:07.221Z,11.97
2023-04-13T06:59:09.354Z,10.07
2023-04-13T07:01:12.565Z,3.30
2023-04-13T07:03:16.192Z,2.80
2023-04-13T07:05:19.581Z,2.90
2023-04-13T07:07:25.464Z,3.20
2023-04-13T07:09:27.862Z,2.73
2023-04-13T07:11:30.241Z,3.40
2023-04-13T07:13:32.683Z,2.67
2023-04-13T07:15:37.916Z,3.10
2023-04-13T07:17:40.040Z,3.90
2023-04-13T07:19:46.890Z,3.43
2023-04-13T07:21:49.985Z,8.00
2023-04-13T07:23:52.101Z,2.60
2023-04-13T07:25:54.346Z,3.63
2023-04-13T07:28:00.651Z,3.23
2023-04-13T07:30:03.643Z,5.30
2023-04-13T07:32:12.510Z,3.77
2023-04-13T07:34:15.822Z,4.20
2023-04-13T07:36:21.021Z,4.37
2023-04-13T07:38:26.244Z,3.40
2023-04-13T07:40:28.580Z,3.00
2023-04-13T07:42:33.212Z,5.33
2023-04-13T07:44:35.504Z,4.77
2023-04-13T07:46:38.786Z,2.83
2023-04-13T07:48:43.915Z,2.63
2023-04-13T07:50:56.566Z,3.43
2023-04-13T07:52:59.318Z,2.07
2023-04-13T07:55:03.507Z,6.23
2023-04-13T07:57:09.295Z,3.17
2023-04-13T07:59:17.249Z,4.30
2023-04-13T08:01:22.233Z,3.67
2023-04-13T08:03:25.341Z,5.50
2023-04-13T08:05:27.669Z,4.73
2023-04-13T08:07:30.110Z,5.90
2023-04-13T08:09:36.180Z,2.73
2023-04-13T08:11:38.940Z,5.93
2023-04-13T08:13:42.994Z,3.67
2023-04-13T08:15:45.949Z,2.60
2023-04-13T08:17:48.159Z,4.17
2023-04-13T08:19:51.359Z,3.77
2023-04-13T08:21:54.104Z,2.90
2023-04-13T08:23:57.060Z,2.37
2023-04-13T08:26:02.681Z,2.80
2023-04-13T08:28:06.075Z,3.13
2023-04-13T08:30:09.496Z,1.77
2023-04-13T08:32:20.700Z,4.20
2023-04-13T08:34:23.295Z,7.97
2023-04-13T08:36:25.578Z,2.80
2023-04-13T08:38:36.239Z,3.33
2023-04-13T08:40:40.829Z,3.07
2023-04-13T08:42:49.185Z,2.90
2023-04-13T08:44:52.591Z,2.70
2023-04-13T08:46:54.914Z,4.90
2023-04-13T08:49:03.345Z,3.60
2023-04-13T08:51:17.019Z,4.87
2023-04-13T08:53:19.535Z,6.90
2023-04-13T08:55:22.608Z,7.33
2023-04-13T08:57:27.869Z,3.57
2023-04-13T08:59:30.937Z,2.47
2023-04-13T09:01:34.419Z,2.47
2023-04-13T09:03:43.550Z,2.10
2023-04-13T09:05:47.495Z,5.23
2023-04-13T09:07:53.840Z,3.93
2023-04-13T09:09:58.431Z,4.03
2023-04-13T09:12:00.755Z,4.97
2023-04-13T09:14:05.321Z,5.70
2023-04-13T09:16:08.730Z,5.73
2023-04-13T09:18:17.287Z,1.70
2023-04-13T09:20:27.318Z,2.70
2023-04-13T09:22:29.717Z,2.60
2023-04-13T09:24:41.582Z,5.37
2023-04-13T09:27:04.849Z,4.93
2023-04-13T09:29:19.560Z,4.27
2023-04-13T09:31:22.046Z,4.10
2023-04-13T09:33:24.343Z,2.10
2023-04-13T09:35:30.553Z,4.17
2023-04-13T09:37:34.133Z,5.67
2023-04-13T09:39:37.370Z,4.13
2023-04-13T09:41:40.642Z,5.67
2023-04-13T09:43:44.646Z,3.40
2023-04-13T09:45:46.954Z,5.67
2023-04-13T09:47:49.439Z,2.20
2023-04-13T09:49:52.768Z,4.50
2023-04-13T09:51:55.819Z,5.10
2023-04-13T09:53:58.053Z,4.60
2023-04-13T09:56:00.676Z,4.33
2023-04-13T09:58:14.935Z,2.77
2023-04-13T10:00:21.485Z,3.23
2023-04-13T10:02:24.007Z,3.03
2023-04-13T10:04:26.561Z,3.63
2023-04-13T10:06:28.791Z,4.33
2023-04-13T10:08:38.012Z,2.27
2023-04-13T10:10:41.219Z,3.37
2023-04-13T10:12:50.061Z,3.23
2023-04-13T10:14:56.917Z,2.60
2023-04-13T10:17:07.653Z,4.17
2023-04-13T10:19:12.687Z,6.70
2023-04-13T10:21:15.625Z,2.33
2023-04-13T10:23:18.752Z,2.13
2023-04-13T10:25:32.109Z,5.57
2023-04-13T10:27:36.568Z,2.83
2023-04-13T10:29:38.931Z,5.83
2023-04-13T10:31:43.821Z,2.90
2023-04-13T10:33:52.127Z,5.63
2023-04-13T10:35:58.720Z,5.90
2023-04-13T10:38:01.222Z,3.43
2023-04-13T10:40:06.842Z,4.57
2023-04-13T10:42:10.725Z,4.37
2023-04-13T10:44:12.914Z,4.63
2023-04-13T10:46:15.207Z,2.63
2023-04-13T10:48:21.781Z,3.23
2023-04-13T10:50:27.025Z,4.03
2023-04-13T10:52:29.499Z,3.30
2023-04-13T10:54:32.243Z,4.30
2023-04-13T10:56:34.786Z,1.50
2023-04-13T10:58:36.981Z,2.50
2023-04-13T11:00:46.304Z,3.47
2023-04-13T11:02:50.386Z,4.27
2023-04-13T11:04:53.107Z,3.73
2023-04-13T11:06:56.234Z,5.70
2023-04-13T11:09:07.093Z,7.23
2023-04-13T11:11:14.859Z,4.50
2023-04-13T11:13:17.343Z,5.13
2023-04-13T11:15:24.427Z,5.83
2023-04-13T11:17:27.347Z,5.10
2023-04-13T11:19:29.823Z,7.70
2023-04-13T11:21:31.931Z,5.33
2023-04-13T11:23:34.860Z,10.77
2023-04-13T11:25:37.066Z,3.20
2023-04-13T11:27:39.294Z,2.63
2023-04-13T11:29:41.458Z,5.20
2023-04-13T11:31:43.840Z,2.70
2023-04-13T11:33:49.265Z,4.30
2023-04-13T11:35:51.737Z,4.20
2023-04-13T11:37:55.243Z,5.40
2023-04-13T11:39:58.223Z,3.93
2023-04-13T11:42:08.192Z,5.43
2023-04-13T11:44:13.568Z,5.00
2023-04-13T11:46:23.180Z,4.70
2023-04-13T11:48:26.348Z,6.80
2023-04-13T11:50:29.410Z,1.90
2023-04-13T11:52:32.593Z,4.87
2023-04-13T11:54:34.858Z,4.07
2023-04-13T11:56:37.115Z,11.83
2023-04-13T11:58:39.802Z,5.03
2023-04-13T12:00:42.456Z,5.63
2023-04-13T12:03:00.413Z,3.47
2023-04-13T12:05:04.708Z,3.37
2023-04-13T12:07:12.943Z,3.83
2023-04-13T12:09:17.874Z,8.27
2023-04-13T12:11:41.139Z,8.00
2023-04-13T12:13:49.821Z,9.13
2023-04-13T12:16:15.902Z,4.20
2023-04-13T12:18:28.414Z,6.67
2023-04-13T12:20:40.419Z,2.47
2023-04-13T12:22:53.493Z,1.90
2023-04-13T12:24:59.430Z,5.00
2023-04-13T12:29:10.694Z,6.83
2023-04-13T12:31:13.764Z,2.80
2023-04-13T12:33:16.666Z,2.60
2023-04-13T12:35:21.624Z,1.73
2023-04-13T12:37:23.785Z,3.50
2023-04-13T12:39:26.489Z,7.80
2023-04-13T12:41:28.666Z,5.83
2023-04-13T12:43:31.078Z,3.93
2023-04-13T12:45:33.246Z,7.30
2023-04-13T12:47:38.668Z,3.50
2023-04-13T12:49:40.961Z,5.50
2023-04-13T12:51:43.110Z,3.67
2023-04-13T12:53:45.505Z,2.87
2023-04-13T12:55:47.759Z,2.23
2023-04-13T12:57:50.165Z,3.50
2023-04-13T12:59:59.821Z,8.87
2023-04-13T13:02:02.149Z,3.70
2023-04-13T13:04:05.064Z,3.20
2023-04-13T13:06:08.359Z,6.63
2023-04-13T13:08:11.053Z,4.33
2023-04-13T13:10:29.210Z,2.83
2023-04-13T13:12:32.131Z,5.83
2023-04-13T13:14:34.440Z,5.67
2023-04-13T13:16:36.618Z,2.57
2023-04-13T13:18:49.839Z,3.67
2023-04-13T13:20:53.608Z,3.17
2023-04-13T13:22:55.831Z,2.03
2023-04-13T13:24:57.992Z,3.83
2023-04-13T13:29:05.437Z,4.03
2023-04-13T13:31:08.466Z,2.40
2023-04-13T13:33:10.727Z,3.40
2023-04-13T13:35:14.183Z,3.50
2023-04-13T13:37:16.521Z,1.87
2023-04-13T13:39:21.310Z,3.80
2023-04-13T13:41:25.457Z,3.10
2023-04-13T13:43:27.565Z,5.13
2023-04-13T13:45:29.776Z,4.07
2023-04-13T13:47:34.043Z,2.17
2023-04-13T13:49:37.360Z,2.63
2023-04-13T13:52:08.754Z,3.50
2023-04-13T13:54:20.506Z,3.33
2023-04-13T13:56:22.943Z,3.03
2023-04-13T13:58:25.095Z,4.93
2023-04-13T14:00:27.332Z,2.80
2023-04-13T14:02:29.617Z,10.97
2023-04-13T14:04:31.956Z,4.13
2023-04-13T14:06:34.222Z,7.40
2023-04-13T14:08:36.481Z,3.33
2023-04-13T14:10:38.672Z,5.90
2023-04-13T14:12:55.890Z,1.83
2023-04-13T14:14:58.132Z,3.50
2023-04-13T14:17:00.655Z,3.40
2023-04-13T14:19:02.893Z,1.97
2023-04-13T14:21:05.154Z,3.90
2023-04-13T14:23:09.084Z,3.27
2023-04-13T14:25:11.696Z,4.53
2023-04-13T14:27:13.917Z,4.70
2023-04-13T14:29:16.269Z,3.70
2023-04-13T14:31:18.798Z,2.97
2023-04-13T14:33:21.100Z,2.73
2023-04-13T14:35:23.650Z,2.93
2023-04-13T14:37:27.149Z,3.70
2023-04-13T14:39:29.328Z,4.73
2023-04-13T14:41:31.649Z,4.17
2023-04-13T14:43:33.816Z,4.03
2023-04-13T14:45:36.161Z,3.73
2023-04-13T14:47:39.794Z,5.27
2023-04-13T14:49:45.240Z,11.20
2023-04-13T14:51:47.487Z,5.47
2023-04-13T14:53:50.030Z,2.50
2023-04-13T14:55:52.470Z,5.80
2023-04-13T14:57:55.843Z,3.13
2023-04-13T14:59:58.088Z,6.40
2023-04-13T15:02:01.020Z,3.23
2023-04-13T15:04:03.825Z,2.40
2023-04-13T15:06:08.303Z,4.10
2023-04-13T15:08:11.912Z,6.40
2023-04-13T15:10:14.490Z,5.90
2023-04-13T15:12:16.941Z,1.80
2023-04-13T15:14:19.201Z,2.50
2023-04-13T15:16:21.719Z,3.63
2023-04-13T15:18:23.925Z,5.73
2023-04-13T15:20:26.904Z,3.93
2023-04-13T15:22:31.033Z,2.90
2023-04-13T15:24:33.335Z,3.07
2023-04-13T15:26:42.617Z,2.80
2023-04-13T15:28:45.268Z,2.87
2023-04-13T15:30:47.508Z,5.77
2023-04-13T15:32:50.424Z,5.83
2023-04-13T15:34:56.397Z,7.13
2023-04-13T15:36:59.432Z,5.10
2023-04-13T15:39:02.242Z,2.47
2023-04-13T15:41:04.788Z,3.00
2023-04-13T15:43:07.509Z,4.60
2023-04-13T15:45:10.169Z,3.13
2023-04-13T15:47:12.436Z,7.37
2023-04-13T15:49:14.754Z,5.53
2023-04-13T15:51:16.938Z,2.90
2023-04-13T15:53:19.105Z,5.37
2023-04-13T15:55:21.414Z,4.10
2023-04-13T15:57:23.675Z,5.90
2023-04-13T15:59:26.845Z,4.70
2023-04-13T16:01:29.330Z,2.50
2023-04-13T16:03:33.275Z,2.63
2023-04-13T16:05:35.665Z,4.63
2023-04-13T16:07:37.894Z,1.97
2023-04-13T16:09:40.031Z,5.10
2023-04-13T16:11:42.267Z,4.50
2023-04-13T16:13:48.682Z,4.63
2023-04-13T16:15:58.818Z,2.20
2023-04-13T16:18:01.753Z,5.57
2023-04-13T16:20:14.442Z,3.17
2023-04-13T16:22:16.578Z,3.50
2023-04-13T16:24:20.173Z,4.37
2023-04-13T16:26:22.712Z,3.30
2023-04-13T16:28:24.989Z,2.00
2023-04-13T16:30:27.425Z,3.73
2023-04-13T16:32:29.703Z,4.70
2023-04-13T16:34:31.951Z,3.77
2023-04-13T16:36:34.176Z,5.27
2023-04-13T16:38:36.730Z,5.77
2023-04-13T16:40:38.846Z,2.43
2023-04-13T16:42:41.559Z,4.47
2023-04-13T16:44:44.013Z,3.60
2023-04-13T16:46:50.199Z,4.73
2023-04-13T16:48:52.451Z,3.23
2023-04-13T16:50:58.575Z,8.13
2023-04-13T16:53:07.888Z,4.60
2023-04-13T16:55:17.614Z,3.23
2023-04-13T16:57:19.762Z,6.30
2023-04-13T16:59:21.935Z,4.50
2023-04-13T17:01:25.677Z,3.30
2023-04-13T17:03:28.095Z,3.23
2023-04-13T17:05:30.641Z,4.90
2023-04-13T17:07:32.913Z,18.83
2023-04-13T17:09:35.091Z,4.00
2023-04-13T17:11:37.338Z,4.70
2023-04-13T17:13:39.590Z,5.87
2023-04-13T17:15:42.377Z,8.67
2023-04-13T17:17:44.565Z,4.73
2023-04-13T17:19:46.823Z,10.23
2023-04-13T17:21:50.396Z,11.37
2023-04-13T17:23:52.617Z,8.20
2023-04-13T17:25:56.516Z,8.00
2023-04-13T17:27:58.772Z,5.07
2023-04-13T17:30:01.108Z,3.80
2023-04-13T17:32:05.606Z,10.03
2023-04-13T17:34:07.857Z,4.37
2023-04-13T17:36:10.166Z,6.20
2023-04-13T17:38:12.538Z,5.20
2023-04-13T17:40:14.734Z,5.77
2023-04-13T17:42:17.722Z,8.97
2023-04-13T17:44:19.889Z,13.27
2023-04-13T17:46:22.083Z,8.30
2023-04-13T17:48:24.409Z,8.30
2023-04-13T17:50:26.593Z,20.50
2023-04-13T17:52:28.895Z,42.77
2023-04-13T17:54:31.115Z,47.60
2023-04-13T17:56:33.349Z,48.90
2023-04-13T17:58:35.821Z,35.57
2023-04-13T18:00:38.237Z,27.60
2023-04-13T18:02:40.760Z,27.03
2023-04-13T18:04:42.957Z,24.60
2023-04-13T18:06:45.089Z,21.63
2023-04-13T18:08:47.291Z,23.77
2023-04-13T18:10:49.621Z,26.20
2023-04-13T18:12:51.947Z,18.97
2023-04-13T18:14:54.111Z,22.57
2023-04-13T18:16:56.362Z,20.93
2023-04-13T18:18:58.917Z,13.77
2023-04-13T18:21:01.268Z,30.70
2023-04-13T18:23:03.550Z,13.30
2023-04-13T18:25:06.317Z,14.43
2023-04-13T18:27:08.647Z,13.67
2023-04-13T18:29:10.837Z,13.47
2023-04-13T18:31:13.493Z,14.43
2023-04-13T18:33:15.797Z,15.40
2023-04-13T18:35:18.658Z,20.57
2023-04-13T18:37:21.130Z,12.50
2023-04-13T18:39:23.390Z,35.50
2023-04-13T18:41:25.529Z,12.37
2023-04-13T18:43:27.674Z,20.67
2023-04-13T18:45:29.866Z,14.10
2023-04-13T18:47:32.166Z,15.53
2023-04-13T18:49:34.290Z,17.23
2023-04-13T18:51:36.549Z,8.57
2023-04-13T18:53:39.039Z,8.67
2023-04-13T18:55:41.248Z,13.40
2023-04-13T18:57:43.421Z,18.77
2023-04-13T18:59:45.957Z,9.83
2023-04-13T19:01:48.254Z,11.43
2023-04-13T19:03:52.543Z,14.47
2023-04-13T19:05:54.990Z,13.83
2023-04-13T19:08:00.008Z,10.23
2023-04-13T19:10:02.178Z,20.20
2023-04-13T19:12:05.709Z,12.67
2023-04-13T19:14:07.868Z,12.73
2023-04-13T19:16:10.230Z,7.90
2023-04-13T19:18:12.608Z,11.20
2023-04-13T19:20:15.425Z,7.20
2023-04-13T19:22:19.428Z,6.00
2023-04-13T19:24:23.277Z,5.57
2023-04-13T19:26:25.597Z,5.53
2023-04-13T19:28:27.862Z,8.70
2023-04-13T19:30:30.081Z,7.00
2023-04-13T19:32:32.393Z,10.00
2023-04-13T19:34:34.655Z,12.17
2023-04-13T19:36:37.527Z,9.17
2023-04-13T19:38:39.681Z,8.80
2023-04-13T19:40:41.976Z,11.63
2023-04-13T19:42:45.573Z,9.20
2023-04-13T19:44:47.771Z,9.03
2023-04-13T19:46:50.011Z,11.53
2023-04-13T19:48:52.160Z,16.87
2023-04-13T19:50:54.326Z,9.43
2023-04-13T19:52:58.253Z,8.90
2023-04-13T19:55:00.592Z,13.63
2023-04-13T19:57:02.867Z,12.73
2023-04-13T19:59:06.431Z,11.40
2023-04-13T20:01:10.321Z,10.50
2023-04-13T20:03:12.626Z,6.40
2023-04-13T20:05:15.539Z,9.93
2023-04-13T20:07:17.999Z,8.10
2023-04-13T20:09:20.218Z,8.60
2023-04-13T20:11:22.437Z,9.63
2023-04-13T20:13:24.708Z,12.63
2023-04-13T20:15:29.788Z,18.13
2023-04-13T20:17:32.119Z,16.67
2023-04-13T20:19:36.415Z,11.13
2023-04-13T20:21:41.850Z,12.00
2023-04-13T20:23:45.526Z,13.27
2023-04-13T20:25:47.669Z,20.53
2023-04-13T20:27:50.212Z,26.17
2023-04-13T20:29:52.483Z,18.00
2023-04-13T20:31:55.018Z,15.57
2023-04-13T20:33:57.431Z,21.20
2023-04-13T20:35:59.674Z,23.53
2023-04-13T20:38:01.941Z,32.20
2023-04-13T20:40:07.085Z,33.93
2023-04-13T20:42:11.530Z,28.57
2023-04-13T20:44:13.610Z,25.53
2023-04-13T20:46:17.024Z,21.37
2023-04-13T20:50:27.546Z,21.77
2023-04-13T20:52:30.067Z,17.00
2023-04-13T20:54:32.274Z,23.00
2023-04-13T20:56:35.267Z,23.67
2023-04-13T20:58:37.882Z,21.33
2023-04-13T21:00:41.151Z,18.03
2023-04-13T21:02:44.002Z,16.77
2023-04-13T21:04:46.828Z,18.60
2023-04-13T21:06:50.173Z,14.33
2023-04-13T21:08:53.016Z,19.27
2023-04-13T21:10:55.231Z,16.97
2023-04-13T21:12:57.396Z,12.50
2023-04-13T21:14:59.714Z,15.53
2023-04-13T21:17:01.942Z,13.00
2023-04-13T21:19:04.135Z,20.67
2023-04-13T21:21:06.754Z,14.63
2023-04-13T21:23:09.020Z,29.30
2023-04-13T21:25:11.188Z,11.13
2023-04-13T21:27:14.081Z,10.90
2023-04-13T21:29:16.479Z,8.33
2023-04-13T21:31:18.818Z,10.23
2023-04-13T21:33:21.192Z,11.03
2023-04-13T21:35:23.411Z,11.70
2023-04-13T21:37:26.382Z,10.10
2023-04-13T21:39:31.544Z,14.53
2023-04-13T21:41:33.772Z,9.30
2023-04-13T21:43:35.972Z,9.40
2023-04-13T21:45:38.258Z,10.87
2023-04-13T21:47:40.574Z,10.00
2023-04-13T21:49:43.207Z,14.10
2023-04-13T21:51:45.422Z,12.27
2023-04-13T21:53:48.330Z,8.87
2023-04-13T21:55:50.586Z,17.57
2023-04-13T21:57:53.000Z,15.20
2023-04-13T21:59:56.373Z,8.60
2023-04-13T22:01:58.684Z,14.00
2023-04-13T22:04:01.215Z,8.33
2023-04-13T22:06:07.320Z,9.13
2023-04-13T22:08:09.428Z,10.83
2023-04-13T22:10:11.770Z,10.80
2023-04-13T22:12:14.304Z,15.13
2023-04-13T22:14:16.495Z,9.53
2023-04-13T22:16:18.731Z,8.93
2023-04-13T22:18:21.038Z,12.90
2023-04-13T22:20:23.223Z,11.17
2023-04-13T22:22:25.476Z,9.53
2023-04-13T22:24:27.662Z,19.93
2023-04-13T22:26:30.434Z,9.07
2023-04-13T22:28:32.666Z,11.53
2023-04-13T22:30:35.961Z,8.23
2023-04-13T22:32:38.002Z,9.80
2023-04-13T22:34:40.059Z,12.37
2023-04-13T22:36:42.069Z,8.27
2023-04-13T22:38:44.501Z,6.40
2023-04-13T22:40:46.763Z,9.73
2023-04-13T22:42:48.800Z,6.63
2023-04-13T22:44:50.926Z,9.73
2023-04-13T22:46:53.991Z,9.63
2023-04-13T22:48:56.150Z,11.60
2023-04-13T22:51:00.488Z,7.23
2023-04-13T22:53:02.522Z,6.90
2023-04-13T22:55:04.937Z,6.83
2023-04-13T22:57:06.989Z,9.03
2023-04-13T22:59:08.952Z,10.47
2023-04-13T23:01:11.908Z,5.73
2023-04-13T23:03:14.380Z,8.80
2023-04-13T23:05:16.708Z,8.70
2023-04-13T23:07:18.633Z,5.93
2023-04-13T23:09:20.802Z,11.57
2023-04-13T23:11:23.130Z,8.17
2023-04-13T23:13:25.413Z,5.70
2023-04-13T23:15:27.473Z,6.90
2023-04-13T23:17:29.437Z,6.20
2023-04-13T23:19:31.472Z,10.97
2023-04-13T23:21:33.449Z,9.63
2023-04-13T23:23:35.512Z,10.37
2023-04-13T23:25:37.482Z,14.13
2023-04-13T23:27:39.503Z,11.20
2023-04-13T23:29:45.513Z,13.97
2023-04-13T23:31:47.972Z,9.80
2023-04-13T23:33:50.392Z,10.73
2023-04-13T23:35:52.533Z,9.63
2023-04-13T23:37:54.573Z,8.67
2023-04-13T23:39:57.264Z,13.53
2023-04-13T23:41:59.492Z,13.83
2023-04-13T23:44:01.644Z,10.33
2023-04-13T23:46:03.833Z,9.27
2023-04-13T23:48:06.015Z,8.53
2023-04-13T23:50:08.766Z,11.33
2023-04-13T23:52:11.012Z,16.23
2023-04-13T23:54:12.995Z,18.53
2023-04-13T23:56:15.041Z,33.53
2023-04-13T23:58:16.995Z,49.60
